Time;durP1;ratioP1;P1;durP2;ratioP2;P2;SDS_P1;SDS_P2;PMS_P1;PMS_P2;Temp;Humidity;BMP_temperature;BMP_pressure;BME280_temperature;BME280_humidity;BME280_pressure;Samples;Min_cycle;Max_cycle;Signal;HPM_P1;HPM_P2
2023/10/14 00:02:01;;;;;;;3.55;2.20;;;;;;;21.31;32.74;96029.66;6217775;23;20020;-78
2023/10/14 00:04:30;;;;;;;3.78;2.00;;;;;;;21.35;32.66;96034.16;6216624;23;20351;-80
2023/10/14 00:07:06;;;;;;;7.07;2.38;;;;;;;21.41;32.67;96040.31;6216073;23;20025;-80
2023/10/14 00:09:35;;;;;;;4.50;2.30;;;;;;;21.45;32.48;96040.56;6215980;23;20104;-80
2023/10/14 00:12:12;;;;;;;3.47;2.35;;;;;;;21.49;32.56;96033.69;6216010;23;20024;-81
2023/10/14 00:14:43;;;;;;;5.32;2.38;;;;;;;21.54;32.79;96028.41;6215246;23;20489;-80
2023/10/14 00:17:13;;;;;;;5.47;2.40;;;;;;;21.55;32.44;96020.16;6216128;23;20052;-81
2023/10/14 00:19:41;;;;;;;4.15;2.45;;;;;;;21.58;32.63;96013.50;6215704;23;20047;-80
2023/10/14 00:22:10;;;;;;;5.10;2.63;;;;;;;21.61;32.58;96013.00;6216477;23;20366;-80
2023/10/14 00:24:39;;;;;;;6.07;2.10;;;;;;;21.64;32.75;96020.41;6215334;23;20028;-81
2023/10/14 00:27:08;;;;;;;4.82;2.15;;;;;;;21.66;32.79;96020.16;6215942;23;20020;-80
2023/10/14 00:29:36;;;;;;;4.75;2.53;;;;;;;21.68;33.08;96008.19;6215568;23;20474;-80
2023/10/14 00:32:04;;;;;;;4.75;2.75;;;;;;;21.69;33.08;96012.47;6216262;23;20026;-80
2023/10/14 00:34:33;;;;;;;3.80;2.10;;;;;;;21.72;33.06;96003.94;6215690;23;20075;-81
2023/10/14 00:37:00;;;;;;;3.88;2.42;;;;;;;21.72;33.26;95996.00;6215785;23;20111;-80
2023/10/14 00:39:31;;;;;;;3.38;2.28;;;;;;;21.76;33.34;95998.91;6215856;23;20032;-80
2023/10/14 00:41:59;;;;;;;4.03;2.22;;;;;;;21.77;33.42;95998.63;6215833;23;20035;-79
2023/10/14 00:44:27;;;;;;;5.82;2.50;;;;;;;21.78;33.57;95989.63;6215168;23;20100;-80
2023/10/14 00:46:56;;;;;;;5.05;2.70;;;;;;;21.80;33.78;96005.28;6215467;23;20077;-80
2023/10/14 00:49:30;;;;;;;4.40;2.10;;;;;;;21.82;34.20;96003.13;6215532;23;20048;-81
2023/10/14 00:52:00;;;;;;;5.30;2.60;;;;;;;21.84;34.34;96006.31;6215927;23;20024;-80
2023/10/14 00:54:51;;;;;;;7.47;3.08;;;;;;;21.85;34.11;96009.78;6215331;23;20024;-81
2023/10/14 00:57:20;;;;;;;3.72;2.30;;;;;;;21.86;34.42;96000.75;6215453;23;20025;-81
2023/10/14 00:59:50;;;;;;;3.78;2.58;;;;;;;21.87;34.71;96005.00;6215290;23;20029;-80
2023/10/14 01:02:26;;;;;;;5.20;2.55;;;;;;;21.87;34.77;96000.50;6215172;23;20509;-80
2023/10/14 01:04:54;;;;;;;6.32;2.88;;;;;;;21.88;35.08;95999.41;6215392;23;20480;-80
2023/10/14 01:07:22;;;;;;;3.33;2.35;;;;;;;21.90;35.08;96004.47;6215478;23;20394;-80
2023/10/14 01:09:52;;;;;;;6.15;2.72;;;;;;;21.90;35.78;96012.44;6215566;23;20020;-80
2023/10/14 01:12:37;;;;;;;7.20;2.97;;;;;;;21.89;36.24;96008.97;6215909;23;20056;-81
2023/10/14 01:15:13;;;;;;;7.57;3.30;;;;;;;21.89;36.63;96008.19;6215013;23;20020;-80
2023/10/14 01:17:42;;;;;;;4.07;2.83;;;;;;;21.89;37.36;96001.03;6215335;23;20069;-80
2023/10/14 01:20:26;;;;;;;8.30;2.92;;;;;;;21.88;37.59;95996.75;6215134;23;20103;-80
2023/10/14 01:22:57;;;;;;;9.65;2.80;;;;;;;21.89;37.88;95995.72;6215131;23;20020;-80
2023/10/14 01:25:29;;;;;;;7.07;3.10;;;;;;;21.88;38.11;95988.00;6215193;23;20021;-81
2023/10/14 01:27:59;;;;;;;7.35;2.75;;;;;;;21.88;38.34;95988.00;6214785;23;20466;-80
2023/10/14 01:30:32;;;;;;;9.95;3.80;;;;;;;21.87;38.60;95987.22;6215474;23;20044;-81
2023/10/14 01:33:10;;;;;;;6.10;3.40;;;;;;;21.88;38.35;95991.44;6215333;23;20048;-80
2023/10/14 01:35:42;;;;;;;9.75;3.50;;;;;;;21.88;38.40;95980.03;6214630;23;20099;-79
2023/10/14 01:38:11;;;;;;;3.92;2.90;;;;;;;21.89;38.97;95979.00;6215109;23;20027;-80
2023/10/14 01:40:43;;;;;;;7.47;3.08;;;;;;;21.89;39.18;95971.03;6215379;23;20024;-81
2023/10/14 01:43:10;;;;;;;5.85;3.13;;;;;;;21.89;38.94;95976.34;6215355;23;20020;-81
2023/10/14 01:45:48;;;;;;;5.22;3.40;;;;;;;21.89;39.73;95968.38;6214916;23;20027;-81
2023/10/14 01:48:20;;;;;;;3.25;2.95;;;;;;;21.87;39.64;95968.63;6215462;23;20020;-80
2023/10/14 01:50:52;;;;;;;6.07;3.00;;;;;;;21.88;39.82;95977.38;6215129;23;20082;-81
2023/10/14 01:53:23;;;;;;;5.47;3.30;;;;;;;21.86;39.97;95977.63;6215333;23;20048;-80
2023/10/14 01:55:53;;;;;;;7.85;3.38;;;;;;;21.85;40.41;95960.13;6214834;23;20052;-80
2023/10/14 01:58:29;;;;;;;6.65;3.30;;;;;;;21.84;40.57;95971.81;6214519;23;20055;-81
2023/10/14 02:01:04;;;;;;;8.38;3.20;;;;;;;21.85;40.79;95977.94;6219791;23;20021;-81
2023/10/14 02:03:35;;;;;;;5.60;2.92;;;;;;;21.81;41.42;95959.88;6226483;23;20024;-80
2023/10/14 02:06:10;;;;;;;8.00;4.28;;;;;;;21.78;42.24;95965.72;6229116;23;20025;-81
2023/10/14 02:08:40;;;;;;;6.82;3.90;;;;;;;21.77;42.59;95979.25;6229655;23;20036;-80
2023/10/14 02:11:09;;;;;;;8.32;4.00;;;;;;;21.75;43.07;95970.75;6218844;23;20025;-80
2023/10/14 02:13:37;;;;;;;4.97;3.72;;;;;;;;;;6216150;23;20028;-80
2023/10/14 02:16:07;;;;;;;7.28;4.30;;;;;;;21.73;43.48;95975.53;6216077;23;20025;-81
2023/10/14 02:18:37;;;;;;;11.13;4.38;;;;;;;21.71;44.07;95975.84;6215348;23;20071;-80
2023/10/14 02:21:08;;;;;;;6.32;4.15;;;;;;;21.70;44.30;95968.13;6215808;23;20024;-81
2023/10/14 02:23:47;;;;;;;8.02;4.45;;;;;;;21.67;44.66;95964.16;6215354;23;20051;-81
2023/10/14 02:26:22;;;;;;;6.55;4.13;;;;;;;21.66;45.09;95978.47;6220547;23;20020;-81
2023/10/14 02:28:52;;;;;;;6.63;4.40;;;;;;;21.65;45.25;95974.25;6232679;23;20021;-80
2023/10/14 02:31:29;;;;;;;10.82;3.88;;;;;;;21.65;45.31;95960.19;6232702;23;20024;-81
2023/10/14 02:33:57;;;;;;;6.45;4.13;;;;;;;21.65;45.71;95960.19;6225992;23;20031;-80
2023/10/14 02:36:29;;;;;;;4.53;3.88;;;;;;;21.63;46.01;95955.13;6215027;23;20462;-80
2023/10/14 02:38:57;;;;;;;7.07;4.25;;;;;;;21.62;45.83;95961.50;6215691;23;20052;-81
2023/10/14 02:41:29;;;;;;;7.45;3.90;;;;;;;21.60;45.99;95964.44;6214759;23;20474;-80
2023/10/14 02:44:19;;;;;;;5.45;3.92;;;;;;;21.60;46.15;95950.34;6215086;23;20028;-81
2023/10/14 02:46:46;;;;;;;6.35;4.10;;;;;;;21.61;45.90;95949.28;6214830;23;20028;-80
2023/10/14 02:49:15;;;;;;;7.07;3.78;;;;;;;21.62;45.99;95961.50;6214525;23;20020;-79
2023/10/14 02:51:43;;;;;;;7.45;4.13;;;;;;;21.62;46.14;95952.75;6214261;23;20032;-80
2023/10/14 02:54:26;;;;;;;7.85;4.30;;;;;;;21.60;46.61;95951.16;6214371;23;20024;-81
2023/10/14 02:56:59;;;;;;;8.30;4.40;;;;;;;21.59;46.61;95946.91;6217337;23;20025;-81
2023/10/14 02:59:39;;;;;;;9.63;4.50;;;;;;;21.60;46.84;95963.63;6216250;23;20020;-80
2023/10/14 03:02:16;;;;;;;6.20;4.40;;;;;;;21.61;46.84;95951.94;6216848;23;20067;-80
2023/10/14 03:04:55;;;;;;;6.40;4.70;;;;;;;21.60;46.97;95950.34;6216661;23;20021;-81
2023/10/14 03:07:27;;;;;;;9.43;4.72;;;;;;;21.60;47.34;95943.19;6216666;23;20331;-80
2023/10/14 03:09:58;;;;;;;8.27;4.85;;;;;;;21.60;47.23;95945.03;6216754;23;20020;-80
2023/10/14 03:12:27;;;;;;;11.07;4.70;;;;;;;21.60;47.66;95942.38;6216699;23;20060;-81
2023/10/14 03:14:55;;;;;;;7.68;4.70;;;;;;;21.60;47.48;95939.72;6216187;23;20325;-80
2023/10/14 03:17:39;;;;;;;9.90;5.07;;;;;;;21.59;47.49;95943.47;6218312;23;20032;-80
2023/10/14 03:20:34;;;;;;;12.75;5.35;;;;;;;21.57;47.79;95930.44;6218782;23;20027;-81
2023/10/14 03:22:59;;;;;;;10.10;5.20;;;;;;;21.56;47.78;95938.69;6217958;23;20025;-81
2023/10/14 03:25:28;;;;;;;9.73;4.90;;;;;;;21.54;47.94;95924.91;6216295;23;20097;-80
2023/10/14 03:28:07;;;;;;;9.43;4.85;;;;;;;21.53;48.09;95936.56;6216648;23;20059;-81
2023/10/14 03:30:37;;;;;;;7.88;4.90;;;;;;;21.52;47.98;95929.69;6216472;23;20071;-80
2023/10/14 03:33:09;;;;;;;6.05;4.90;;;;;;;21.52;48.29;95929.69;6215715;23;20055;-81
2023/10/14 03:35:37;;;;;;;10.27;4.60;;;;;;;21.53;48.21;95933.91;6215573;23;20059;-80
2023/10/14 03:38:15;;;;;;;12.80;5.18;;;;;;;21.52;48.41;95929.69;6215830;23;20094;-80
2023/10/14 03:43:29;;;;;;;11.55;5.10;;;;;;;21.51;48.38;95928.84;6195279;23;20075;-80
2023/10/14 03:46:03;;;;;;;13.10;5.43;;;;;;;21.51;48.37;95920.09;6215996;23;20116;-80
2023/10/14 03:48:45;;;;;;;10.27;4.90;;;;;;;21.51;48.47;95917.47;6216074;23;20074;-81
2023/10/14 03:51:14;;;;;;;13.82;5.28;;;;;;;21.50;48.48;95923.84;6216224;23;20031;-80
2023/10/14 03:53:41;;;;;;;9.65;4.78;;;;;;;21.50;48.71;95918.53;6215688;23;20108;-80
2023/10/14 03:56:10;;;;;;;9.30;4.75;;;;;;;21.49;48.82;95911.63;6215824;23;20048;-80
2023/10/14 03:58:41;;;;;;;10.43;4.82;;;;;;;21.48;48.83;95912.69;6215928;23;20016;-80
2023/10/14 04:01:08;;;;;;;10.65;5.03;;;;;;;21.48;48.49;95910.03;6216117;23;20025;-80
2023/10/14 04:03:43;;;;;;;6.80;4.65;;;;;;;21.49;48.72;95911.63;6216245;23;20024;-80
2023/10/14 04:06:14;;;;;;;10.52;5.45;;;;;;;21.49;48.74;95922.22;6215299;23;20478;-80
2023/10/14 04:08:47;;;;;;;8.35;4.70;;;;;;;21.50;48.76;95914.00;6215362;23;20017;-80
2023/10/14 04:11:16;;;;;;;9.30;5.32;;;;;;;21.50;48.85;95911.38;6216089;23;20028;-80
2023/10/14 04:13:58;;;;;;;6.63;4.97;;;;;;;21.50;49.06;95900.75;6216181;23;20095;-81
2023/10/14 04:16:37;;;;;;;7.97;4.90;;;;;;;21.50;48.91;95898.09;6215604;23;20354;-81
2023/10/14 04:19:17;;;;;;;8.82;5.45;;;;;;;21.51;48.65;95904.19;6216289;23;20059;-81
2023/10/14 04:21:53;;;;;;;8.52;4.90;;;;;;;21.50;48.90;95903.41;6224342;23;20079;-79
2023/10/14 04:24:27;;;;;;;5.68;4.78;;;;;;;21.49;48.65;95891.19;6239939;23;20020;-79
2023/10/14 04:27:16;;;;;;;9.82;4.93;;;;;;;21.48;48.85;95902.09;6241911;23;20016;-79
2023/10/14 04:29:52;;;;;;;8.65;4.72;;;;;;;21.46;48.88;95904.22;6233194;23;20021;-80
2023/10/14 04:32:27;;;;;;;18.02;5.38;;;;;;;21.44;48.97;95872.63;6221030;23;20044;-80
2023/10/14 04:34:57;;;;;;;7.80;5.25;;;;;;;21.42;49.41;95888.03;6217964;23;20032;-81
2023/10/14 04:37:36;;;;;;;9.13;5.68;;;;;;;21.40;49.49;95864.38;6216521;23;20024;-80
2023/10/14 04:40:15;;;;;;;8.15;4.95;;;;;;;21.40;49.24;95890.91;6216575;23;20025;-81
2023/10/14 04:42:45;;;;;;;9.50;5.32;;;;;;;21.38;49.40;95893.06;6215790;23;20029;-80
2023/10/14 04:45:16;;;;;;;10.23;4.85;;;;;;;21.38;49.54;95895.72;6215263;23;20071;-80
2023/10/14 04:47:47;;;;;;;8.60;5.03;;;;;;;21.40;49.40;95885.59;6215258;23;20028;-80
2023/10/14 04:50:21;;;;;;;11.00;4.93;;;;;;;21.38;49.35;95895.72;6215605;23;20023;-80
2023/10/14 04:52:49;;;;;;;7.32;4.75;;;;;;;21.36;49.38;95883.75;6215703;23;20020;-81
2023/10/14 04:55:28;;;;;;;16.50;5.43;;;;;;;21.35;49.31;95909.50;6215224;23;20407;-81
2023/10/14 04:58:23;;;;;;;8.82;5.40;;;;;;;21.34;49.19;95896.47;6215034;23;20474;-80
2023/10/14 05:00:52;;;;;;;10.45;5.53;;;;;;;21.30;49.27;95901.53;6215607;23;20021;-81
2023/10/14 05:03:22;;;;;;;11.95;4.95;;;;;;;21.28;49.35;95914.28;6214725;23;20013;-80
2023/10/14 05:05:52;;;;;;;10.15;4.78;;;;;;;21.27;49.24;95899.41;6215075;23;20026;-80
2023/10/14 05:08:22;;;;;;;11.52;4.43;;;;;;;21.27;49.33;95902.06;6215523;23;20028;-81
2023/10/14 05:10:52;;;;;;;10.02;5.13;;;;;;;21.26;49.52;95916.41;6215206;23;20021;-80
2023/10/14 05:13:28;;;;;;;8.80;4.35;;;;;;;21.26;49.27;95921.69;6215424;23;20100;-81
2023/10/14 05:16:15;;;;;;;7.00;4.70;;;;;;;21.24;49.18;95907.91;6214829;23;20414;-80
2023/10/14 05:18:58;;;;;;;15.35;4.53;;;;;;;21.22;49.14;95927.81;6214611;23;20017;-80
2023/10/14 05:21:36;;;;;;;13.02;5.07;;;;;;;21.18;49.21;95930.19;6215091;23;20059;-81
2023/10/14 05:24:05;;;;;;;7.63;4.55;;;;;;;21.15;49.40;95944.78;6214679;23;20063;-80
2023/10/14 05:26:36;;;;;;;9.68;4.35;;;;;;;21.12;49.67;95941.84;6214868;23;20108;-82
2023/10/14 05:29:11;;;;;;;13.07;4.95;;;;;;;21.11;49.65;95961.47;6215032;23;20417;-81
2023/10/14 05:31:40;;;;;;;5.78;2.65;;;;;;;21.03;53.15;95991.97;6214866;23;20028;-81
2023/10/14 05:34:08;;;;;;;5.95;2.90;;;;;;;20.89;54.52;96002.28;6216666;23;20103;-81
2023/10/14 05:36:36;;;;;;;6.60;2.75;;;;;;;20.71;56.27;95982.34;6215533;23;20032;-80
2023/10/14 05:39:06;;;;;;;5.28;2.78;;;;;;;20.57;56.96;96002.44;6215122;23;20099;-80
2023/10/14 05:41:36;;;;;;;4.82;3.30;;;;;;;20.42;57.46;95974.00;6215237;23;20070;-80
2023/10/14 05:44:05;;;;;;;5.25;3.45;;;;;;;20.35;57.78;95989.34;6215029;23;20059;-80
2023/10/14 05:46:32;;;;;;;7.50;3.97;;;;;;;20.28;57.96;95996.75;6214907;23;20048;-80
2023/10/14 05:49:01;;;;;;;5.57;3.93;;;;;;;20.24;58.21;96011.56;6214715;23;20534;-79
2023/10/14 05:51:30;;;;;;;8.02;4.50;;;;;;;20.19;58.35;96001.72;6215100;23;20360;-80
2023/10/14 05:53:58;;;;;;;6.82;4.40;;;;;;;20.16;58.31;96008.34;6215035;23;20388;-82
2023/10/14 05:56:28;;;;;;;6.93;4.05;;;;;;;20.13;58.24;96022.06;6214592;23;20060;-80
2023/10/14 06:01:45;;;;;;;9.27;4.38;;;;;;;20.10;58.43;96006.72;6190678;23;20453;-79
2023/10/14 06:04:16;;;;;;;10.20;4.47;;;;;;;20.10;58.66;96009.38;6216711;23;20052;-79
2023/10/14 06:06:44;;;;;;;7.45;4.43;;;;;;;20.06;58.28;96005.63;6216145;23;20367;-78
2023/10/14 06:09:16;;;;;;;6.35;3.97;;;;;;;20.00;58.65;96021.75;6231407;23;20021;-78
2023/10/14 06:11:45;;;;;;;7.13;4.50;;;;;;;19.95;58.74;96019.88;6231337;23;20028;-78
2023/10/14 06:14:14;;;;;;;6.75;4.32;;;;;;;19.93;59.39;96027.25;6225784;23;20362;-79
2023/10/14 06:16:41;;;;;;;6.63;4.25;;;;;;;19.90;59.53;96033.88;6216636;23;20032;-79
2023/10/14 06:19:12;;;;;;;11.15;4.20;;;;;;;19.90;59.70;96044.47;6216958;23;20021;-78
2023/10/14 06:21:44;;;;;;;6.72;4.18;;;;;;;19.90;60.41;96048.97;6234999;23;20048;-78
2023/10/14 06:24:12;;;;;;;4.60;4.05;;;;;;;19.85;60.43;96057.63;6233657;23;20025;-78
2023/10/14 06:26:40;;;;;;;8.55;4.03;;;;;;;19.82;60.82;96052.06;6217637;23;20024;-79
2023/10/14 06:29:09;;;;;;;6.45;4.30;;;;;;;19.82;60.93;96067.94;6215906;23;20028;-79
2023/10/14 06:31:40;;;;;;;8.32;4.38;;;;;;;19.80;61.12;96059.47;6217504;23;20331;-79
2023/10/14 06:34:09;;;;;;;8.65;5.00;;;;;;;19.75;61.79;96063.66;6217869;23;20079;-78
2023/10/14 06:36:37;;;;;;;6.80;5.20;;;;;;;19.78;61.62;96064.22;6217541;23;20087;-79
2023/10/14 06:39:14;;;;;;;7.15;4.97;;;;;;;19.75;61.96;96068.97;6217383;23;20083;-79
2023/10/14 06:41:44;;;;;;;6.82;4.45;;;;;;;19.72;61.93;96074.75;6217717;23;20020;-79
2023/10/14 06:44:15;;;;;;;8.85;4.78;;;;;;;19.65;62.18;96079.41;6217890;23;20028;-78
2023/10/14 06:46:44;;;;;;;4.88;4.18;;;;;;;19.60;62.55;96087.31;6218579;23;20017;-79
2023/10/14 06:49:14;;;;;;;5.68;3.90;;;;;;;19.59;62.53;96096.31;6217457;23;20020;-78
2023/10/14 06:51:43;;;;;;;6.93;4.50;;;;;;;19.55;62.53;96101.31;6217552;23;20346;-79
2023/10/14 06:54:14;;;;;;;7.18;4.57;;;;;;;19.53;62.73;96103.41;6217543;23;20028;-79
2023/10/14 06:56:44;;;;;;;6.70;3.97;;;;;;;19.53;62.53;96102.59;6217655;23;20087;-78
2023/10/14 06:59:13;;;;;;;8.18;4.45;;;;;;;19.55;62.56;96097.88;6217107;23;20020;-78
2023/10/14 07:01:43;;;;;;;6.97;4.07;;;;;;;19.60;62.43;96100.53;6217020;23;20042;-79
2023/10/14 07:04:12;;;;;;;8.23;4.53;;;;;;;19.64;62.13;96108.78;6217240;23;20023;-79
2023/10/14 07:06:42;;;;;;;6.65;4.70;;;;;;;19.65;62.21;96105.88;6217106;23;20476;-78
2023/10/14 07:09:17;;;;;;;5.50;3.63;;;;;;;19.67;62.03;96109.06;6217132;23;20412;-78
2023/10/14 07:11:47;;;;;;;6.00;3.90;;;;;;;19.70;61.85;96113.91;6217549;23;20024;-78
2023/10/14 07:14:19;;;;;;;7.38;3.85;;;;;;;19.74;61.73;96117.66;6218671;23;20013;-79
2023/10/14 07:16:51;;;;;;;5.40;3.83;;;;;;;19.81;61.42;96114.78;6218384;23;20016;-78
2023/10/14 07:19:20;;;;;;;6.30;3.88;;;;;;;19.86;61.33;96122.75;6217765;23;20103;-79
2023/10/14 07:21:50;;;;;;;7.88;4.13;;;;;;;19.92;61.12;96120.97;6216925;23;20032;-78
2023/10/14 07:24:21;;;;;;;7.70;4.05;;;;;;;19.95;60.96;96128.41;6216748;23;20016;-79
2023/10/14 07:26:52;;;;;;;8.13;4.25;;;;;;;19.94;60.60;96126.78;6217310;23;20074;-78
2023/10/14 07:29:21;;;;;;;10.45;4.43;;;;;;;19.94;60.79;96124.97;6217939;23;20021;-79
2023/10/14 07:31:52;;;;;;;7.60;4.07;;;;;;;20.01;60.53;96131.91;6216638;23;20013;-78
2023/10/14 07:34:23;;;;;;;6.43;3.90;;;;;;;20.04;60.13;96134.03;6216752;23;20402;-79
2023/10/14 07:36:54;;;;;;;5.55;3.47;;;;;;;20.07;59.93;96144.91;6216789;23;20021;-78
2023/10/14 07:39:29;;;;;;;10.15;4.03;;;;;;;20.03;59.51;96143.81;6217250;23;20410;-78
2023/10/14 07:42:09;;;;;;;4.95;3.35;;;;;;;19.95;59.62;96147.72;6215716;23;20066;-78
2023/10/14 07:44:40;;;;;;;6.57;3.72;;;;;;;19.92;59.63;96147.44;6217144;23;20024;-79
2023/10/14 07:47:11;;;;;;;4.82;3.45;;;;;;;19.90;59.70;96146.91;6217178;23;20017;-79
2023/10/14 07:49:43;;;;;;;6.05;3.03;;;;;;;19.91;59.45;96143.97;6224575;23;20032;-78
2023/10/14 07:52:14;;;;;;;5.22;3.70;;;;;;;19.98;59.24;96141.13;6225602;23;20240;-78
2023/10/14 07:54:46;;;;;;;6.30;3.30;;;;;;;20.01;59.26;96145.91;6217376;23;20023;-78
2023/10/14 07:57:24;;;;;;;9.88;3.83;;;;;;;19.98;59.35;96150.91;6217435;23;20067;-79
2023/10/14 08:00:00;;;;;;;6.72;3.30;;;;;;;19.93;59.31;96151.66;6217277;23;20103;-78
2023/10/14 08:02:34;;;;;;;3.47;2.70;;;;;;;19.96;59.38;96157.28;6216636;23;20013;-79
2023/10/14 08:05:05;;;;;;;8.20;3.72;;;;;;;20.00;59.12;96146.97;6216883;23;20048;-79
2023/10/14 08:07:40;;;;;;;5.57;3.30;;;;;;;20.04;58.88;96145.41;6215681;23;20082;-79
2023/10/14 08:10:21;;;;;;;7.43;3.47;;;;;;;20.08;58.81;96156.28;6216878;23;20016;-79
2023/10/14 08:12:54;;;;;;;5.75;3.50;;;;;;;20.09;59.16;96147.28;6217559;23;20039;-79
2023/10/14 08:18:08;;;;;;;7.22;3.58;;;;;;;20.28;58.91;96153.00;6194220;23;20107;-79
2023/10/14 08:20:42;;;;;;;6.28;2.95;;;;;;;20.43;58.42;96154.97;6216785;23;20019;-79
2023/10/14 08:23:15;;;;;;;7.65;3.30;;;;;;;20.49;57.85;96157.38;6216594;23;20362;-79
2023/10/14 08:25:46;;;;;;;8.88;3.50;;;;;;;20.55;57.79;96151.06;6216321;23;20540;-79
2023/10/14 08:28:21;;;;;;;10.43;3.37;;;;;;;20.59;57.58;96156.66;6216455;23;20029;-79
2023/10/14 08:30:52;;;;;;;6.88;3.13;;;;;;;20.57;57.15;96156.13;6216219;23;20039;-79
2023/10/14 08:33:40;;;;;;;7.43;2.92;;;;;;;20.57;57.30;96159.59;6216505;23;20021;-79
2023/10/14 08:36:19;;;;;;;4.30;3.10;;;;;;;20.52;57.03;96154.22;6216410;23;20100;-79
2023/10/14 08:38:49;;;;;;;8.18;2.92;;;;;;;20.52;57.42;96151.56;6216650;23;20016;-79
2023/10/14 08:41:22;;;;;;;7.78;2.53;;;;;;;20.56;57.18;96152.66;6216595;23;20454;-79
2023/10/14 08:44:08;;;;;;;5.45;3.17;;;;;;;20.61;57.37;96148.47;6216371;23;20017;-79
2023/10/14 08:46:55;;;;;;;7.65;3.55;;;;;;;20.59;57.02;96151.38;6216333;23;20055;-79
2023/10/14 08:49:28;;;;;;;6.00;2.92;;;;;;;20.58;57.24;96155.09;6190567;23;20040;-79
2023/10/14 08:52:01;;;;;;;7.03;2.92;;;;;;;20.58;56.89;96150.56;6216847;23;20060;-79
2023/10/14 08:57:15;;;;;;;9.35;3.53;;;;;;;20.49;57.20;96164.53;6216074;23;20016;-78
2023/10/14 08:59:49;;;;;;;9.07;3.63;;;;;;;20.46;57.45;96155.22;6190460;23;20016;-79
2023/10/14 09:02:22;;;;;;;4.63;2.92;;;;;;;20.47;57.18;96138.28;6216090;23;20024;-79
2023/10/14 09:04:52;;;;;;;5.93;2.97;;;;;;;20.50;57.27;96144.94;6216023;23;20047;-79
2023/10/14 09:07:32;;;;;;;8.18;3.42;;;;;;;20.52;57.43;96146.28;6218378;23;20021;-79
2023/10/14 09:10:06;;;;;;;9.93;3.47;;;;;;;20.55;57.38;96160.84;6216465;23;20100;-79
2023/10/14 09:12:37;;;;;;;7.20;3.45;;;;;;;20.54;57.39;96159.28;6217481;23;20044;-79
2023/10/14 09:15:20;;;;;;;6.45;3.80;;;;;;;20.48;58.44;96145.19;6217596;23;20020;-79
2023/10/14 09:18:07;;;;;;;8.07;3.42;;;;;;;20.37;58.96;96154.13;6218649;23;20473;-79
2023/10/14 09:20:43;;;;;;;5.28;2.75;;;;;;;20.30;59.02;96156.19;6216456;23;20020;-78
2023/10/14 09:23:15;;;;;;;6.93;3.08;;;;;;;20.27;59.49;96169.94;6216813;23;20340;-78
2023/10/14 09:25:45;;;;;;;;;;;;;;;20.28;59.08;96160.94;6216945;23;20410;-78
2023/10/14 09:28:20;;;;;;;;;;;;;;;20.20;59.58;96174.66;6216636;23;20330;-79
2023/10/14 09:31:08;;;;;;;5.22;2.67;;;;;;;20.08;60.66;96172.97;6229828;23;19915;-79
2023/10/14 09:33:43;;;;;;;5.55;3.20;;;;;;;20.06;60.89;96187.53;6237085;23;20021;-79
2023/10/14 09:36:15;;;;;;;7.57;3.67;;;;;;;20.03;61.38;96186.19;6224051;23;20100;-79
2023/10/14 09:38:50;;;;;;;6.00;2.85;;;;;;;20.02;61.75;96189.06;6217435;23;20017;-79
2023/10/14 09:41:21;;;;;;;5.50;2.45;;;;;;;20.02;61.55;96187.22;6216562;23;20067;-78
2023/10/14 09:43:57;;;;;;;8.65;3.65;;;;;;;20.00;61.42;96191.97;6216580;23;20083;-79
2023/10/14 09:46:31;;;;;;;8.60;2.80;;;;;;;19.99;62.12;96190.38;6216118;23;20017;-80
2023/10/14 09:49:02;;;;;;;7.00;3.75;;;;;;;19.99;62.21;96200.97;6216333;23;20401;-78
2023/10/14 09:51:34;;;;;;;5.25;3.35;;;;;;;20.07;62.69;96192.56;6216625;23;20013;-79
2023/10/14 09:54:08;;;;;;;7.97;3.58;;;;;;;20.20;62.15;96198.47;6216438;23;20021;-79
2023/10/14 09:56:41;;;;;;;7.13;3.08;;;;;;;20.29;62.17;96194.31;6217370;23;20401;-78
2023/10/14 09:59:12;;;;;;;8.32;3.78;;;;;;;20.34;62.20;96202.31;6215982;23;20524;-79
2023/10/14 10:01:51;;;;;;;10.98;4.38;;;;;;;20.40;62.29;96185.41;6221103;23;20024;-78
2023/10/14 10:04:33;;;;;;;6.38;3.63;;;;;;;20.47;62.48;96180.69;6220077;23;20021;-79
2023/10/14 10:07:17;;;;;;;7.10;3.60;;;;;;;20.62;62.27;96165.94;6215479;23;20027;-79
2023/10/14 10:10:13;;;;;;;7.22;3.47;;;;;;;20.85;61.54;96160.25;6221763;23;20024;-79
2023/10/14 10:12:52;;;;;;;4.53;3.22;;;;;;;21.09;60.77;96178.41;6231132;23;20033;-78
2023/10/14 10:15:24;;;;;;;4.65;2.10;;;;;;;21.11;59.56;96232.78;6228045;23;20023;-79
2023/10/14 10:20:56;;;;;;;3.35;0.68;;;;;;;20.47;60.05;96233.69;6216729;23;20238;-78
2023/10/14 10:23:26;;;;;;;3.72;0.40;;;;;;;20.25;60.17;96246.22;6216711;23;20017;-78
2023/10/14 10:26:04;;;;;;;1.02;0.47;;;;;;;20.03;61.26;96255.03;6215708;23;20025;-78
2023/10/14 10:28:39;;;;;;;2.28;0.73;;;;;;;19.91;62.45;96262.31;6189236;23;20071;-78
2023/10/14 10:31:16;;;;;;;1.08;0.20;;;;;;;19.81;61.86;96262.19;6215932;23;20023;-79
2023/10/14 10:33:56;;;;;;;1.88;0.30;;;;;;;19.64;62.75;96268.34;6216024;23;20021;-78
2023/10/14 10:36:28;;;;;;;2.75;0.68;;;;;;;19.56;63.15;96261.63;6215814;23;20477;-78
2023/10/14 10:39:15;;;;;;;4.13;1.35;;;;;;;19.59;64.21;96260.34;6215609;23;20401;-78
2023/10/14 10:41:53;;;;;;;1.17;0.30;;;;;;;19.60;63.58;96253.22;6215997;23;20017;-78
2023/10/14 10:44:27;;;;;;;3.50;1.40;;;;;;;19.63;64.34;96258.00;6215873;23;20043;-78
2023/10/14 10:47:01;;;;;;;3.85;0.95;;;;;;;19.67;64.44;96257.25;6216244;23;20096;-78
2023/10/14 10:49:56;;;;;;;1.60;0.20;;;;;;;19.63;63.49;96245.56;6215313;23;20020;-78
2023/10/14 10:52:28;;;;;;;3.95;0.82;;;;;;;19.64;64.43;96257.75;6215181;23;20358;-78
2023/10/14 10:55:00;;;;;;;1.05;0.30;;;;;;;19.64;63.81;96247.16;6215844;23;20043;-78
2023/10/14 10:57:30;;;;;;;0.10;0.10;;;;;;;19.53;62.93;96253.41;6215169;23;20021;-78
2023/10/14 11:00:09;;;;;;;0.55;0.10;;;;;;;19.41;63.19;96258.78;6215305;23;20084;-77
2023/10/14 11:02:40;;;;;;;1.10;0.20;;;;;;;19.32;63.46;96247.84;6215355;23;20017;-78
2023/10/14 11:05:11;;;;;;;0.68;0.17;;;;;;;19.25;63.52;96246.44;6215566;23;20028;-78
2023/10/14 11:07:43;;;;;;;2.55;0.22;;;;;;;19.18;64.38;96243.97;6215709;23;20451;-78
2023/10/14 11:10:14;;;;;;;3.05;0.75;;;;;;;19.16;64.95;96255.84;6214961;23;20024;-78
2023/10/14 11:12:43;;;;;;;1.73;0.30;;;;;;;19.16;64.47;96267.22;6190190;23;20021;-78
2023/10/14 11:15:20;;;;;;;2.50;0.45;;;;;;;19.18;65.53;96259.84;6215082;23;20021;-78
2023/10/14 11:17:56;;;;;;;0.75;0.30;;;;;;;19.19;66.40;96256.13;6216517;23;20108;-77
2023/10/14 11:20:31;;;;;;;1.58;0.30;;;;;;;19.13;64.09;96250.00;6218386;23;20016;-78
2023/10/14 11:23:03;;;;;;;1.27;0.30;;;;;;;19.07;64.28;96247.53;6219044;23;20016;-78
2023/10/14 11:25:37;;;;;;;;;;;;;;;19.04;63.41;96232.94;6219396;23;20482;-78
2023/10/14 11:28:07;;;;;;;1.40;0.60;;;;;;;18.96;65.06;96236.03;6217697;23;19987;-79
2023/10/14 11:30:41;;;;;;;0.32;0.32;;;;;;;18.91;64.58;96239.41;6217582;23;20029;-78
2023/10/14 11:33:19;;;;;;;1.92;0.60;;;;;;;18.96;66.97;96235.19;6217147;23;20087;-78
2023/10/14 11:35:51;;;;;;;4.47;1.20;;;;;;;18.95;66.94;96229.13;6217320;23;20074;-78
2023/10/14 11:38:20;;;;;;;1.95;0.25;;;;;;;18.94;66.21;96233.63;6217284;23;20335;-79
2023/10/14 11:40:52;;;;;;;0.98;0.45;;;;;;;18.89;66.05;96235.38;6217808;23;20037;-79
2023/10/14 11:43:21;;;;;;;1.48;0.50;;;;;;;18.89;66.59;96240.66;6217401;23;20016;-78
2023/10/14 11:45:52;;;;;;;2.35;0.50;;;;;;;18.90;66.41;96237.78;6217028;23;20012;-78
2023/10/14 11:48:23;;;;;;;0.70;0.50;;;;;;;18.93;66.54;96241.78;6217123;23;20091;-78
2023/10/14 11:50:55;;;;;;;0.93;0.50;;;;;;;18.86;65.23;96235.88;6217264;23;20459;-79
2023/10/14 11:53:28;;;;;;;0.93;0.52;;;;;;;18.81;66.00;96223.41;6216723;23;20016;-79
2023/10/14 11:55:59;;;;;;;2.15;0.75;;;;;;;18.78;66.75;96221.22;6217014;23;20020;-78
2023/10/14 12:01:23;;;;;;;1.60;0.73;;;;;;;18.79;67.24;96238.69;6217960;23;20028;-79
2023/10/14 12:03:54;;;;;;;2.38;0.88;;;;;;;18.81;68.59;96233.97;6217522;23;20481;-79
2023/10/14 12:06:30;;;;;;;1.40;0.65;;;;;;;18.83;66.97;96236.38;6216742;23;20016;-79
2023/10/14 12:09:05;;;;;;;1.45;0.50;;;;;;;18.80;66.36;96236.84;6216421;23;20099;-79
2023/10/14 12:11:41;;;;;;;1.50;0.57;;;;;;;18.77;66.62;96227.53;6217426;23;20021;-79
2023/10/14 12:14:14;;;;;;;1.48;0.77;;;;;;;18.75;67.82;96229.63;6229080;23;20464;-79
2023/10/14 12:16:46;;;;;;;1.35;0.40;;;;;;;18.72;67.17;96225.63;6195183;23;20025;-79
2023/10/14 12:19:20;;;;;;;1.10;0.40;;;;;;;18.70;66.08;96213.69;6217609;23;20012;-79